createdAt,value
2023-02-01T00:00:08.501Z,4.40
2023-02-01T00:02:37.147Z,4.30
2023-02-01T00:05:05.397Z,4.30
2023-02-01T00:07:34.447Z,4.40
2023-02-01T00:10:02.147Z,4.30
2023-02-01T00:12:29.877Z,4.20
2023-02-01T00:14:57.568Z,4.20
2023-02-01T00:17:25.491Z,4.20
2023-02-01T00:19:53.467Z,4.10
2023-02-01T00:22:21.205Z,4.10
2023-02-01T00:24:50.268Z,4.20
2023-02-01T00:27:21.235Z,4.20
2023-02-01T00:29:49.037Z,4.30
2023-02-01T00:32:16.851Z,4.40
2023-02-01T00:34:44.573Z,4.50
2023-02-01T00:37:12.337Z,4.50
2023-02-01T00:39:40.061Z,4.50
2023-02-01T00:42:09.300Z,4.50
2023-02-01T00:44:37.052Z,4.40
2023-02-01T00:47:04.882Z,4.40
2023-02-01T00:49:32.643Z,4.40
2023-02-01T00:52:00.364Z,4.50
2023-02-01T00:54:28.105Z,4.60
2023-02-01T00:56:55.819Z,4.70
2023-02-01T00:59:24.850Z,4.70
2023-02-01T01:01:52.614Z,4.80
2023-02-01T01:04:20.318Z,4.80
2023-02-01T01:06:48.055Z,4.90
2023-02-01T01:09:15.771Z,4.80
2023-02-01T01:11:43.530Z,4.80
2023-02-01T01:14:11.843Z,4.70
2023-02-01T01:16:40.906Z,4.70
2023-02-01T01:19:08.660Z,4.50
2023-02-01T01:21:36.410Z,4.50
2023-02-01T01:24:04.223Z,4.40
2023-02-01T01:26:32.663Z,4.50
2023-02-01T01:29:01.587Z,4.40
2023-02-01T01:31:29.735Z,4.40
2023-02-01T01:34:01.099Z,4.40
2023-02-01T01:36:29.916Z,4.40
2023-02-01T01:38:57.640Z,4.40
2023-02-01T01:41:27.526Z,4.40
2023-02-01T01:43:58.017Z,4.40
2023-02-01T01:46:27.935Z,4.30
2023-02-01T01:49:02.728Z,4.30
2023-02-01T01:51:31.952Z,4.30
2023-02-01T01:54:06.063Z,4.30
2023-02-01T01:56:36.497Z,4.30
2023-02-01T01:59:05.672Z,4.30
2023-02-01T02:01:37.541Z,4.30
2023-02-01T02:04:08.358Z,4.30
2023-02-01T02:06:47.063Z,4.20
2023-02-01T02:09:15.445Z,4.20
2023-02-01T02:11:43.155Z,4.20
2023-02-01T02:14:13.852Z,4.30
2023-02-01T02:17:01.101Z,4.30
2023-02-01T02:19:55.315Z,4.30
2023-02-01T02:22:52.145Z,4.30
2023-02-01T02:25:39.714Z,4.30
2023-02-01T02:28:26.753Z,4.20
2023-02-01T02:31:15.086Z,4.20
2023-02-01T02:33:53.259Z,4.20
2023-02-01T02:36:34.056Z,4.20
2023-02-01T02:39:09.420Z,4.10
2023-02-01T02:42:03.919Z,4.20
2023-02-01T02:44:55.487Z,4.20
2023-02-01T02:47:28.553Z,4.20
2023-02-01T02:50:22.844Z,4.30
2023-02-01T02:53:16.124Z,4.30
2023-02-01T02:55:45.071Z,4.30
2023-02-01T02:58:31.846Z,4.30
2023-02-01T03:01:17.388Z,4.40
2023-02-01T03:04:09.814Z,4.50
2023-02-01T03:06:40.715Z,4.60
2023-02-01T03:09:14.108Z,4.50
2023-02-01T03:12:03.306Z,4.50
2023-02-01T03:14:32.409Z,4.60
2023-02-01T03:17:06.617Z,4.50
2023-02-01T03:19:37.581Z,4.50
2023-02-01T03:22:09.380Z,4.50
2023-02-01T03:24:42.268Z,4.50
2023-02-01T03:27:15.123Z,4.50
2023-02-01T03:29:48.379Z,4.40
2023-02-01T03:32:16.172Z,4.40
2023-02-01T03:34:44.883Z,4.40
2023-02-01T03:37:19.578Z,4.40
2023-02-01T03:39:51.844Z,4.50
2023-02-01T03:42:22.823Z,4.50
2023-02-01T03:44:55.891Z,4.60
2023-02-01T03:47:26.660Z,4.60
2023-02-01T03:49:57.135Z,4.60
2023-02-01T03:52:30.451Z,4.60
2023-02-01T03:54:59.422Z,4.60
2023-02-01T03:57:31.437Z,4.60
2023-02-01T04:00:08.571Z,4.60
2023-02-01T04:02:36.670Z,4.60
2023-02-01T04:05:04.721Z,4.70
2023-02-01T04:07:33.874Z,4.70
2023-02-01T04:10:01.631Z,4.70
2023-02-01T04:12:29.498Z,4.70
2023-02-01T04:14:57.231Z,4.80
2023-02-01T04:17:24.980Z,4.70
2023-02-01T04:19:53.904Z,4.80
2023-02-01T04:22:22.999Z,4.70
2023-02-01T04:24:52.072Z,4.80
2023-02-01T04:27:19.978Z,4.90
2023-02-01T04:29:47.728Z,4.90
2023-02-01T04:32:16.943Z,5.00
2023-02-01T04:34:44.777Z,5.00
2023-02-01T04:37:12.531Z,5.00
2023-02-01T04:39:40.279Z,4.90
2023-02-01T04:42:09.622Z,4.90
2023-02-01T04:44:40.504Z,4.90
2023-02-01T04:47:08.269Z,4.90
2023-02-01T04:49:36.000Z,4.90
2023-02-01T04:52:03.942Z,4.80
2023-02-01T04:54:31.718Z,4.90
2023-02-01T04:56:59.461Z,4.80
2023-02-01T04:59:29.855Z,4.80
2023-02-01T05:01:57.701Z,4.90
2023-02-01T05:04:25.559Z,5.00
2023-02-01T05:06:53.519Z,5.00
2023-02-01T05:09:22.764Z,4.90
2023-02-01T05:12:08.179Z,4.90
2023-02-01T05:14:37.232Z,4.90
2023-02-01T05:17:05.106Z,4.90
2023-02-01T05:19:32.850Z,4.90
2023-02-01T05:22:00.581Z,4.90
2023-02-01T05:24:28.332Z,4.90
2023-02-01T05:26:56.076Z,4.80
2023-02-01T05:29:24.070Z,4.90
2023-02-01T05:31:53.237Z,4.80
2023-02-01T05:34:21.068Z,4.80
2023-02-01T05:36:48.811Z,4.80
2023-02-01T05:39:16.594Z,4.80
2023-02-01T05:41:44.338Z,4.90
2023-02-01T05:44:12.517Z,4.90
2023-02-01T05:46:40.475Z,4.90
2023-02-01T05:49:09.625Z,4.80
2023-02-01T05:51:37.356Z,4.80
2023-02-01T05:54:05.279Z,4.90
2023-02-01T05:56:33.003Z,4.90
2023-02-01T06:01:28.511Z,4.90
2023-02-01T06:03:56.316Z,4.90
2023-02-01T06:06:25.494Z,4.90
2023-02-01T06:08:53.250Z,4.90
2023-02-01T06:11:31.735Z,4.90
2023-02-01T06:14:00.900Z,4.90
2023-02-01T06:16:29.015Z,4.80
2023-02-01T06:18:56.976Z,4.80
2023-02-01T06:21:26.156Z,4.80
2023-02-01T06:23:54.395Z,4.80
2023-02-01T06:26:22.483Z,4.80
2023-02-01T06:28:50.295Z,4.70
2023-02-01T06:31:18.208Z,4.80
2023-02-01T06:33:46.838Z,4.80
2023-02-01T06:36:16.289Z,4.70
2023-02-01T06:38:45.334Z,4.70
2023-02-01T06:41:13.111Z,4.70
2023-02-01T06:43:40.891Z,4.70
2023-02-01T06:46:14.552Z,4.70
2023-02-01T06:48:42.753Z,4.70
2023-02-01T06:51:22.315Z,4.70
2023-02-01T06:53:51.444Z,4.80
2023-02-01T06:56:22.091Z,4.80
2023-02-01T06:58:50.163Z,4.90
2023-02-01T07:01:18.314Z,4.80
2023-02-01T07:03:49.402Z,4.90
2023-02-01T07:06:17.286Z,4.90
2023-02-01T07:08:45.409Z,4.90
2023-02-01T07:11:16.118Z,4.90
2023-02-01T07:13:44.363Z,4.80
2023-02-01T07:16:14.586Z,4.90
2023-02-01T07:18:42.410Z,4.90
2023-02-01T07:21:10.178Z,4.90
2023-02-01T07:23:38.768Z,5.00
2023-02-01T07:26:08.912Z,4.90
2023-02-01T07:28:38.699Z,5.00
2023-02-01T07:31:07.411Z,4.90
2023-02-01T07:33:35.374Z,5.00
2023-02-01T07:36:04.863Z,5.00
2023-02-01T07:38:32.633Z,5.10
2023-02-01T07:41:01.330Z,5.10
2023-02-01T07:43:29.566Z,5.20
2023-02-01T07:45:59.095Z,5.30
2023-02-01T07:48:28.198Z,5.30
2023-02-01T07:51:00.530Z,5.10
2023-02-01T07:53:28.549Z,5.00
2023-02-01T07:55:56.974Z,4.90
2023-02-01T07:58:24.960Z,4.70
2023-02-01T08:01:10.554Z,4.60
2023-02-01T08:03:39.707Z,4.50
2023-02-01T08:06:07.850Z,4.50
2023-02-01T08:08:35.796Z,4.40
2023-02-01T08:11:05.833Z,4.40
2023-02-01T08:13:34.883Z,4.40
2023-02-01T08:16:03.602Z,4.30
2023-02-01T08:18:32.041Z,4.30
2023-02-01T08:21:05.606Z,4.20
2023-02-01T08:23:33.451Z,4.20
2023-02-01T08:26:07.491Z,4.20
2023-02-01T08:28:37.826Z,4.10
2023-02-01T08:31:10.393Z,4.10
2023-02-01T08:33:38.891Z,4.10
2023-02-01T08:36:09.947Z,4.00
2023-02-01T08:38:38.332Z,4.00
2023-02-01T08:41:07.855Z,4.10
2023-02-01T08:43:35.617Z,4.10
2023-02-01T08:46:03.566Z,4.30
2023-02-01T08:48:31.375Z,4.20
2023-02-01T08:50:59.361Z,4.20
2023-02-01T08:53:28.436Z,4.20
2023-02-01T08:55:56.345Z,4.20
2023-02-01T08:58:24.293Z,4.20
2023-02-01T09:00:52.658Z,4.10
2023-02-01T09:03:20.964Z,4.10
2023-02-01T09:05:49.990Z,4.10
2023-02-01T09:08:19.868Z,4.00
2023-02-01T09:10:48.968Z,4.10
2023-02-01T09:13:16.711Z,4.10
2023-02-01T09:15:44.840Z,4.10
2023-02-01T09:18:12.597Z,4.10
2023-02-01T09:20:40.300Z,4.10
2023-02-01T09:23:08.415Z,4.10
2023-02-01T09:25:36.205Z,4.20
2023-02-01T09:28:06.984Z,4.20
2023-02-01T09:30:35.118Z,4.20
2023-02-01T09:33:02.953Z,4.20
2023-02-01T09:35:30.755Z,4.20
2023-02-01T09:37:58.469Z,4.20
2023-02-01T09:40:26.978Z,4.20
2023-02-01T09:43:12.743Z,4.30
2023-02-01T09:45:50.693Z,4.30
2023-02-01T09:48:21.366Z,4.20
2023-02-01T09:50:55.081Z,4.30
2023-02-01T09:53:29.503Z,4.30
2023-02-01T09:56:01.777Z,4.30
2023-02-01T09:58:35.751Z,4.40
2023-02-01T10:01:05.991Z,4.40
2023-02-01T10:03:36.209Z,4.40
2023-02-01T10:06:18.065Z,4.50
2023-02-01T10:09:19.856Z,4.60
2023-02-01T10:12:16.878Z,4.70
2023-02-01T10:15:01.197Z,4.60
2023-02-01T10:17:46.193Z,4.70
2023-02-01T10:20:24.138Z,4.70
2023-02-01T10:23:26.862Z,4.60
2023-02-01T10:25:56.506Z,4.60
2023-02-01T10:28:26.971Z,4.80
2023-02-01T10:31:00.379Z,5.00
2023-02-01T10:33:34.177Z,5.00
2023-02-01T10:36:07.576Z,5.00
2023-02-01T10:38:35.512Z,5.10
2023-02-01T10:41:05.846Z,5.20
2023-02-01T10:43:34.960Z,5.30
2023-02-01T10:46:04.552Z,5.40
2023-02-01T10:48:33.497Z,5.40
2023-02-01T10:51:04.458Z,5.50
2023-02-01T10:53:38.237Z,5.60
2023-02-01T10:56:09.815Z,5.40
2023-02-01T10:58:44.723Z,5.40
2023-02-01T11:01:19.406Z,5.40
2023-02-01T11:03:54.559Z,5.40
2023-02-01T11:06:28.802Z,5.40
2023-02-01T11:08:58.374Z,5.50
2023-02-01T11:11:26.819Z,5.60
2023-02-01T11:13:57.374Z,5.60
2023-02-01T11:16:32.594Z,5.60
2023-02-01T11:19:00.961Z,5.70
2023-02-01T11:21:29.846Z,5.80
2023-02-01T11:24:02.383Z,5.90
2023-02-01T11:26:30.864Z,6.10
2023-02-01T11:29:02.645Z,6.30
2023-02-01T11:31:34.557Z,6.20
2023-02-01T11:34:09.542Z,6.10
2023-02-01T11:36:38.903Z,6.00
2023-02-01T11:39:19.406Z,6.00
2023-02-01T11:42:00.364Z,5.90
2023-02-01T11:44:33.376Z,6.20
2023-02-01T11:47:24.434Z,6.50
2023-02-01T11:49:53.784Z,6.50
2023-02-01T11:52:45.078Z,6.40
2023-02-01T11:55:25.860Z,6.30
2023-02-01T11:58:05.627Z,6.30
2023-02-01T12:00:59.091Z,6.40
2023-02-01T12:04:05.544Z,6.30
2023-02-01T12:06:45.886Z,6.40
2023-02-01T12:09:26.224Z,6.60
2023-02-01T12:12:02.536Z,6.50
2023-02-01T12:14:47.790Z,6.70
2023-02-01T12:17:44.608Z,7.00
2023-02-01T12:20:31.105Z,7.20
2023-02-01T12:23:14.319Z,7.40
2023-02-01T12:25:58.061Z,7.60
2023-02-01T12:28:42.980Z,7.80
2023-02-01T12:31:47.286Z,7.80
2023-02-01T12:34:35.137Z,7.70
2023-02-01T12:37:14.188Z,7.40
2023-02-01T12:39:50.840Z,7.30
2023-02-01T12:42:23.092Z,7.10
2023-02-01T12:44:57.526Z,6.90
2023-02-01T12:47:34.067Z,6.90
2023-02-01T12:50:05.939Z,6.70
2023-02-01T12:52:38.438Z,6.70
2023-02-01T12:55:17.825Z,6.60
2023-02-01T12:57:48.160Z,6.60
2023-02-01T13:00:25.161Z,6.70
2023-02-01T13:02:59.212Z,6.60
2023-02-01T13:05:32.570Z,6.60
2023-02-01T13:08:05.205Z,6.70
2023-02-01T13:10:38.348Z,6.70
2023-02-01T13:13:12.651Z,6.60
2023-02-01T13:15:44.628Z,6.50
2023-02-01T13:18:16.895Z,6.40
2023-02-01T13:20:51.679Z,6.40
2023-02-01T13:23:27.161Z,6.40
2023-02-01T13:25:56.989Z,6.40
2023-02-01T13:28:30.010Z,6.30
2023-02-01T13:31:31.765Z,6.30
2023-02-01T13:34:40.114Z,6.30
2023-02-01T13:37:22.806Z,6.30
2023-02-01T13:40:01.749Z,6.40
2023-02-01T13:42:33.352Z,6.50
2023-02-01T13:45:05.222Z,6.50
2023-02-01T13:47:35.516Z,6.50
2023-02-01T13:50:12.023Z,6.50
2023-02-01T13:52:42.517Z,6.50
2023-02-01T13:55:26.706Z,6.50
2023-02-01T13:58:03.664Z,6.50
2023-02-01T14:00:34.639Z,6.50
2023-02-01T14:03:21.529Z,6.50
2023-02-01T14:06:18.487Z,6.50
2023-02-01T14:09:17.714Z,6.50
2023-02-01T14:11:48.135Z,6.40
2023-02-01T14:14:48.093Z,6.40
2023-02-01T14:17:37.910Z,6.40
2023-02-01T14:20:51.934Z,6.40
2023-02-01T14:23:29.005Z,6.30
2023-02-01T14:26:21.102Z,6.30
2023-02-01T14:28:56.250Z,6.20
2023-02-01T14:32:00.620Z,6.20
2023-02-01T14:34:35.749Z,6.20
2023-02-01T14:37:05.876Z,6.20
2023-02-01T14:39:39.521Z,6.10
2023-02-01T14:42:22.830Z,6.10
2023-02-01T14:44:58.789Z,6.10
2023-02-01T14:47:32.703Z,6.10
2023-02-01T14:50:11.103Z,6.10
2023-02-01T14:52:44.261Z,6.10
2023-02-01T14:55:16.815Z,6.10
2023-02-01T14:57:47.991Z,6.10
2023-02-01T15:00:23.659Z,6.20
2023-02-01T15:02:55.420Z,6.20
2023-02-01T15:05:34.904Z,6.00
2023-02-01T15:08:09.399Z,6.00
2023-02-01T15:10:45.419Z,5.90
2023-02-01T15:13:31.105Z,5.70
2023-02-01T15:16:07.136Z,5.40
2023-02-01T15:18:36.365Z,5.30
2023-02-01T15:21:28.436Z,5.10
2023-02-01T15:24:12.620Z,5.00
2023-02-01T15:26:40.548Z,4.90
2023-02-01T15:29:13.666Z,4.80
2023-02-01T15:31:43.975Z,4.70
2023-02-01T15:34:13.623Z,4.70
2023-02-01T15:36:45.796Z,4.60
2023-02-01T15:39:26.683Z,4.60
2023-02-01T15:41:57.910Z,4.60
2023-02-01T15:44:41.181Z,4.50
2023-02-01T15:47:15.596Z,4.50
2023-02-01T15:49:47.717Z,4.50
2023-02-01T15:52:24.358Z,4.50
2023-02-01T15:54:55.865Z,4.50
2023-02-01T15:57:31.335Z,4.50
2023-02-01T16:00:02.251Z,4.40
2023-02-01T16:02:36.169Z,4.40
2023-02-01T16:05:07.184Z,4.50
2023-02-01T16:07:35.951Z,4.40
2023-02-01T16:10:21.825Z,4.50
2023-02-01T16:12:50.241Z,4.40
2023-02-01T16:15:17.999Z,4.50
2023-02-01T16:17:46.800Z,4.50
2023-02-01T16:20:16.128Z,4.50
2023-02-01T16:22:43.873Z,4.50
2023-02-01T16:25:11.824Z,4.50
2023-02-01T16:27:39.572Z,4.50
2023-02-01T16:30:10.822Z,4.50
2023-02-01T16:32:39.958Z,4.50
2023-02-01T16:35:19.995Z,4.50
2023-02-01T16:37:47.822Z,4.40
2023-02-01T16:40:16.255Z,4.10
2023-02-01T16:42:44.034Z,3.60
2023-02-01T16:45:12.316Z,3.30
2023-02-01T16:47:44.274Z,3.00
2023-02-01T16:50:23.677Z,2.90
2023-02-01T16:52:52.486Z,2.90
2023-02-01T16:55:23.570Z,2.80
2023-02-01T16:57:51.704Z,2.70
2023-02-01T17:00:25.514Z,2.70
2023-02-01T17:02:54.703Z,2.70
2023-02-01T17:05:24.388Z,2.70
2023-02-01T17:07:53.349Z,2.70
2023-02-01T17:10:39.644Z,2.80
2023-02-01T17:13:10.373Z,2.80
2023-02-01T17:15:38.172Z,2.90
2023-02-01T17:18:07.408Z,2.90
2023-02-01T17:20:37.836Z,3.00
2023-02-01T17:23:06.894Z,3.10
2023-02-01T17:25:34.879Z,3.10
2023-02-01T17:28:02.874Z,3.20
2023-02-01T17:30:31.945Z,3.20
2023-02-01T17:33:02.133Z,3.30
2023-02-01T17:35:33.390Z,3.30
2023-02-01T17:38:02.424Z,3.40
2023-02-01T17:40:31.669Z,3.40
2023-02-01T17:42:59.435Z,3.40
2023-02-01T17:45:40.613Z,3.50
2023-02-01T17:48:09.897Z,3.50
2023-02-01T17:50:38.951Z,3.50
2023-02-01T17:53:09.949Z,3.60
2023-02-01T17:55:41.878Z,3.50
2023-02-01T17:58:11.007Z,3.60
2023-02-01T18:00:39.190Z,3.60
2023-02-01T18:03:07.436Z,3.60
2023-02-01T18:05:41.210Z,3.70
2023-02-01T18:08:10.552Z,3.70
2023-02-01T18:10:38.944Z,3.80
2023-02-01T18:13:06.806Z,3.80
2023-02-01T18:15:34.764Z,3.90
2023-02-01T18:18:02.516Z,3.80
2023-02-01T18:20:30.496Z,3.80
2023-02-01T18:22:58.317Z,3.80
2023-02-01T18:25:29.896Z,3.80
2023-02-01T18:27:58.552Z,3.80
2023-02-01T18:30:31.540Z,3.80
2023-02-01T18:32:59.701Z,3.90
2023-02-01T18:35:29.721Z,3.90
2023-02-01T18:37:58.216Z,3.80
2023-02-01T18:40:30.367Z,3.90
2023-02-01T18:42:58.420Z,3.90
2023-02-01T18:45:32.483Z,3.90
2023-02-01T18:48:01.133Z,3.90
2023-02-01T18:50:31.005Z,3.90
2023-02-01T18:53:00.249Z,3.90
2023-02-01T18:55:32.507Z,3.90
2023-02-01T18:58:01.235Z,3.90
2023-02-01T19:00:29.742Z,4.00
2023-02-01T19:02:57.745Z,4.00
2023-02-01T19:05:26.620Z,4.00
2023-02-01T19:07:54.746Z,4.00
2023-02-01T19:10:24.451Z,4.00
2023-02-01T19:12:55.501Z,4.00
2023-02-01T19:15:23.572Z,3.90
2023-02-01T19:17:54.566Z,4.00
2023-02-01T19:20:26.478Z,4.00
2023-02-01T19:22:55.163Z,4.10
2023-02-01T19:25:25.113Z,4.10
2023-02-01T19:27:55.280Z,4.10
2023-02-01T19:30:25.064Z,4.00
2023-02-01T19:32:53.531Z,4.10
2023-02-01T19:35:22.818Z,4.10
2023-02-01T19:37:50.922Z,4.10
2023-02-01T19:40:21.343Z,4.00
2023-02-01T19:42:49.952Z,4.10
2023-02-01T19:45:20.123Z,4.00
2023-02-01T19:47:47.999Z,4.00
2023-02-01T19:50:19.354Z,4.00
2023-02-01T19:52:47.399Z,3.90
2023-02-01T19:55:15.692Z,3.90
2023-02-01T19:57:43.903Z,3.90
2023-02-01T20:00:15.194Z,3.90
2023-02-01T20:02:44.718Z,3.90
2023-02-01T20:05:12.498Z,3.90
2023-02-01T20:07:40.439Z,3.90
2023-02-01T20:10:10.098Z,3.90
2023-02-01T20:12:37.998Z,3.90
2023-02-01T20:15:08.011Z,3.90
2023-02-01T20:17:36.440Z,3.90
2023-02-01T20:20:06.404Z,3.90
2023-02-01T20:22:34.141Z,3.90
2023-02-01T20:25:03.674Z,3.90
2023-02-01T20:27:32.379Z,4.00
2023-02-01T20:30:00.143Z,4.00
2023-02-01T20:32:27.919Z,4.00
2023-02-01T20:34:55.691Z,4.00
2023-02-01T20:37:24.823Z,3.90
2023-02-01T20:39:52.601Z,3.70
2023-02-01T20:42:20.338Z,3.70
2023-02-01T20:44:48.120Z,3.70
2023-02-01T20:47:15.897Z,3.70
2023-02-01T20:49:43.716Z,3.60
2023-02-01T20:52:11.913Z,3.60
2023-02-01T20:54:41.963Z,3.60
2023-02-01T20:57:09.717Z,3.60
2023-02-01T20:59:37.497Z,3.70
2023-02-01T21:02:05.341Z,3.70
2023-02-01T21:04:33.889Z,3.70
2023-02-01T21:07:02.874Z,3.60
2023-02-01T21:09:31.023Z,3.60
2023-02-01T21:12:00.246Z,3.60
2023-02-01T21:14:27.992Z,3.60
2023-02-01T21:16:55.752Z,3.60
2023-02-01T21:19:27.780Z,3.50
2023-02-01T21:21:55.769Z,3.50
2023-02-01T21:24:23.577Z,3.40
2023-02-01T21:26:51.443Z,3.50
2023-02-01T21:29:20.739Z,3.50
2023-02-01T21:31:48.505Z,3.50
2023-02-01T21:34:16.399Z,3.50
2023-02-01T21:36:44.181Z,3.50
2023-02-01T21:39:12.213Z,3.40
2023-02-01T21:42:09.465Z,3.40
2023-02-01T21:44:38.515Z,3.40
2023-02-01T21:47:07.985Z,3.40
2023-02-01T21:49:36.555Z,3.40
2023-02-01T21:52:04.879Z,3.40
2023-02-01T21:54:32.733Z,3.30
2023-02-01T21:57:00.674Z,3.30
2023-02-01T21:59:28.671Z,3.30
2023-02-01T22:01:57.728Z,3.30
2023-02-01T22:04:25.755Z,3.20
2023-02-01T22:06:53.554Z,3.20
2023-02-01T22:09:22.930Z,3.20
2023-02-01T22:11:51.979Z,3.20
2023-02-01T22:14:20.650Z,3.20
2023-02-01T22:16:49.003Z,3.20
2023-02-01T22:19:18.433Z,3.30
2023-02-01T22:21:47.721Z,3.30
2023-02-01T22:24:17.899Z,3.20
2023-02-01T22:26:45.944Z,3.20
2023-02-01T22:29:14.734Z,3.10
2023-02-01T22:31:42.802Z,3.10
2023-02-01T22:34:11.631Z,3.10
2023-02-01T22:36:40.857Z,3.20
2023-02-01T22:39:08.979Z,3.20
2023-02-01T22:41:36.684Z,3.30
2023-02-01T22:44:04.547Z,3.40
2023-02-01T22:46:32.266Z,3.50
2023-02-01T22:49:01.044Z,3.60
2023-02-01T22:51:30.673Z,3.60
2023-02-01T22:54:00.255Z,3.70
2023-02-01T22:56:30.235Z,3.60
2023-02-01T22:58:59.362Z,3.60
2023-02-01T23:01:27.272Z,3.70
2023-02-01T23:03:58.394Z,3.70
2023-02-01T23:06:26.702Z,3.70
2023-02-01T23:09:00.496Z,3.80
2023-02-01T23:11:29.140Z,3.80
2023-02-01T23:13:57.472Z,3.90
2023-02-01T23:16:25.684Z,3.90
2023-02-01T23:18:53.490Z,3.90
2023-02-01T23:21:23.080Z,3.90
2023-02-01T23:23:52.559Z,4.00
2023-02-01T23:26:23.025Z,3.90
2023-02-01T23:28:54.179Z,3.90
2023-02-01T23:31:23.655Z,3.90
2023-02-01T23:33:54.847Z,3.90
2023-02-01T23:36:23.715Z,4.00
2023-02-01T23:38:52.075Z,3.90
2023-02-01T23:41:22.679Z,3.90
2023-02-01T23:44:07.649Z,3.90
2023-02-01T23:46:36.957Z,3.90
2023-02-01T23:49:06.450Z,3.80
2023-02-01T23:51:34.939Z,3.70
2023-02-01T23:54:03.836Z,3.70
2023-02-01T23:56:34.917Z,3.70
2023-02-01T23:59:04.140Z,3.80
